Time;durP1;ratioP1;P1;durP2;ratioP2;P2;SDS_P1;SDS_P2;PMS_P1;PMS_P2;Temp;Humidity;BMP_temperature;BMP_pressure;BME280_temperature;BME280_humidity;BME280_pressure;Samples;Min_cycle;Max_cycle;Signal;HPM_P1;HPM_P2
2022/06/02 00:01:54;;;;;;;;;;;20.60;43.80;;;;;;4927820;28;20025;-56
2022/06/02 00:04:25;;;;;;;;;;;20.70;43.90;;;;;;4941928;28;19922;-57
2022/06/02 00:06:52;;;;;;;;;;;20.70;43.90;;;;;;4940120;28;19977;-57
2022/06/02 00:09:23;;;;;;;;;;;20.60;43.80;;;;;;4946682;28;20347;-57
2022/06/02 00:11:54;;;;;;;;;;;20.60;43.80;;;;;;4943863;28;19922;-56
2022/06/02 00:14:22;;;;;;;;;;;20.60;43.80;;;;;;4928552;28;20386;-55
2022/06/02 00:16:52;;;;;;;;;;;20.60;43.80;;;;;;4945192;28;19980;-56
2022/06/02 00:19:21;;;;;;;;;;;20.60;43.80;;;;;;4930384;28;20021;-58
2022/06/02 00:21:48;;;;;;;;;;;20.60;43.80;;;;;;4929742;29;19923;-57
2022/06/02 00:24:17;;;;;;;;;;;20.60;43.80;;;;;;4931423;29;19987;-59
2022/06/02 00:26:45;;;;;;;;;;;20.60;43.80;;;;;;4951267;28;19978;-54
2022/06/02 00:29:19;;;;;;;;;;;20.60;43.80;;;;;;4927021;28;19922;-55
2022/06/02 00:31:47;;;;;;;;;;;20.60;43.80;;;;;;4925690;28;19934;-56
2022/06/02 00:34:16;;;;;;;;;;;20.60;43.70;;;;;;4927892;28;19980;-54
2022/06/02 00:36:43;;;;;;;;;;;20.60;43.80;;;;;;4928550;29;19973;-56
2022/06/02 00:39:10;;;;;;;;;;;20.60;43.70;;;;;;4944817;28;20017;-57
2022/06/02 00:41:39;;;;;;;;;;;20.60;43.70;;;;;;4923246;29;19923;-59
2022/06/02 00:44:09;;;;;;;;;;;20.60;43.70;;;;;;4925275;28;20364;-58
2022/06/02 00:46:46;;;;;;;;;;;20.60;43.70;;;;;;4927556;29;19969;-56
2022/06/02 00:49:15;;;;;;;;;;;20.60;43.70;;;;;;4927519;29;19962;-60
2022/06/02 00:51:43;;;;;;;;;;;20.60;43.70;;;;;;4926965;28;19923;-55
2022/06/02 00:59:43;;;;;;;;;;;20.60;43.70;;;;;;4926865;28;19930;-54
2022/06/02 01:02:11;;;;;;;;;;;20.60;43.70;;;;;;4924778;28;19927;-57
2022/06/02 01:04:39;;;;;;;;;;;20.60;43.70;;;;;;4924788;28;20034;-58
2022/06/02 01:07:10;;;;;;;;;;;20.60;43.70;;;;;;4921594;28;20021;-56
2022/06/02 01:09:43;;;;;;;;;;;20.60;43.70;;;;;;4925194;28;20018;-56
2022/06/02 01:12:14;;;;;;;;;;;20.60;43.70;;;;;;4925893;29;19923;-58
2022/06/02 01:14:45;;;;;;;;;;;20.60;43.60;;;;;;4926375;28;19961;-57
2022/06/02 01:17:15;;;;;;;;;;;20.60;43.70;;;;;;4926765;28;19929;-52
2022/06/02 01:19:47;;;;;;;;;;;20.60;43.70;;;;;;4927681;28;20017;-57
2022/06/02 01:22:28;;;;;;;;;;;20.60;43.60;;;;;;4938811;28;20446;-56
2022/06/02 01:25:13;;;;;;;;;;;20.50;43.50;;;;;;4926360;28;19923;-56
2022/06/02 01:27:55;;;;;;;;;;;20.50;43.50;;;;;;4927851;28;20271;-57
2022/06/02 01:30:40;;;;;;;;;;;20.60;43.60;;;;;;4923784;28;19922;-57
2022/06/02 01:33:08;;;;;;;;;;;20.50;43.50;;;;;;4929192;28;19922;-55
2022/06/02 01:35:37;;;;;;;;;;;20.50;43.50;;;;;;4926487;28;20008;-54
2022/06/02 01:38:06;;;;;;;;;;;20.50;43.50;;;;;;4927767;28;19989;-57
2022/06/02 01:40:34;;;;;;;;;;;20.50;43.50;;;;;;4948880;28;19927;-54
2022/06/02 01:43:03;;;;;;;;;;;20.50;43.50;;;;;;4938084;28;19922;-54
2022/06/02 01:45:34;;;;;;;;;;;20.50;43.50;;;;;;4926824;29;19927;-56
2022/06/02 01:48:02;;;;;;;;;;;20.50;43.50;;;;;;4925423;28;19923;-56
2022/06/02 01:50:32;;;;;;;;;;;20.50;43.50;;;;;;4939906;28;19931;-55
2022/06/02 01:53:02;;;;;;;;;;;20.50;43.50;;;;;;4927244;28;20002;-59
2022/06/02 01:55:34;;;;;;;;;;;20.50;43.50;;;;;;4927610;29;19927;-55
2022/06/02 01:58:03;;;;;;;;;;;20.50;43.50;;;;;;4930974;28;20268;-58
2022/06/02 02:00:31;;;;;;;;;;;20.50;43.50;;;;;;4930415;29;20283;-56
2022/06/02 02:02:59;;;;;;;;;;;20.50;43.50;;;;;;4930922;28;20412;-53
2022/06/02 02:05:28;;;;;;;;;;;20.50;43.40;;;;;;4930913;29;19976;-56
2022/06/02 02:08:03;;;;;;;;;;;20.50;43.40;;;;;;4930972;28;20379;-56
2022/06/02 02:10:31;;;;;;;;;;;20.50;43.40;;;;;;4930779;29;20257;-56
2022/06/02 02:13:02;;;;;;;;;;;20.50;43.40;;;;;;4930772;28;19945;-55
2022/06/02 02:15:32;;;;;;;;;;;20.50;43.40;;;;;;4949556;28;20406;-56
2022/06/02 02:18:08;;;;;;;;;;;20.50;43.40;;;;;;4929249;28;19923;-57
2022/06/02 02:20:38;;;;;;;;;;;20.50;43.40;;;;;;4928116;28;19930;-53
2022/06/02 02:23:06;;;;;;;;;;;20.50;43.40;;;;;;4931297;28;19976;-55
2022/06/02 02:25:35;;;;;;;;;;;20.50;43.40;;;;;;4930507;29;19923;-55
2022/06/02 02:28:07;;;;;;;;;;;20.50;43.40;;;;;;4925930;29;19973;-56
2022/06/02 02:30:39;;;;;;;;;;;20.50;43.40;;;;;;4927078;28;20165;-57
2022/06/02 02:33:08;;;;;;;;;;;20.50;43.40;;;;;;4928934;29;19962;-55
2022/06/02 02:35:39;;;;;;;;;;;20.50;43.40;;;;;;4929374;28;19949;-55
2022/06/02 02:38:08;;;;;;;;;;;20.50;43.40;;;;;;4926349;28;20014;-57
2022/06/02 02:40:37;;;;;;;;;;;20.50;43.40;;;;;;4932687;28;20471;-57
2022/06/02 02:43:05;;;;;;;;;;;20.50;43.30;;;;;;4930687;29;19972;-56
2022/06/02 02:45:38;;;;;;;;;;;20.40;43.30;;;;;;4930597;28;19923;-55
2022/06/02 02:48:07;;;;;;;;;;;20.40;43.20;;;;;;4938871;28;19923;-58
2022/06/02 02:50:34;;;;;;;;;;;20.40;43.20;;;;;;4929756;29;19928;-55
2022/06/02 02:53:03;;;;;;;;;;;20.40;43.20;;;;;;4942711;28;19923;-57
2022/06/02 02:55:32;;;;;;;;;;;20.40;43.20;;;;;;4928403;29;19931;-57
2022/06/02 02:58:02;;;;;;;;;;;20.40;43.20;;;;;;4926155;28;20471;-55
2022/06/02 03:00:30;;;;;;;;;;;20.40;43.20;;;;;;4928782;29;19934;-56
2022/06/02 03:02:59;;;;;;;;;;;20.40;43.20;;;;;;4928123;29;20364;-57
2022/06/02 03:05:27;;;;;;;;;;;20.40;43.20;;;;;;4941947;28;20010;-59
2022/06/02 03:07:53;;;;;;;;;;;20.40;43.20;;;;;;4928184;28;19922;-59
2022/06/02 03:10:21;;;;;;;;;;;20.40;43.20;;;;;;4932274;29;20478;-56
2022/06/02 03:13:12;;;;;;;;;;;20.40;43.20;;;;;;4928508;29;20033;-57
2022/06/02 03:15:40;;;;;;;;;;;20.40;43.20;;;;;;4928609;28;20010;-57
2022/06/02 03:18:11;;;;;;;;;;;20.40;43.20;;;;;;4922883;29;20311;-55
2022/06/02 03:20:45;;;;;;;;;;;20.40;43.20;;;;;;4930284;28;19978;-56
2022/06/02 03:23:16;;;;;;;;;;;20.40;43.20;;;;;;4927376;28;20295;-58
2022/06/02 03:25:43;;;;;;;;;;;20.40;43.20;;;;;;4925380;29;19927;-59
2022/06/02 03:28:16;;;;;;;;;;;20.40;43.20;;;;;;4939780;28;20303;-54
2022/06/02 03:30:46;;;;;;;;;;;20.40;43.20;;;;;;4930292;29;19930;-55
2022/06/02 03:33:28;;;;;;;;;;;20.40;43.20;;;;;;4943968;28;19927;-57
2022/06/02 03:35:56;;;;;;;;;;;20.40;43.20;;;;;;4931485;28;20326;-56
2022/06/02 03:38:30;;;;;;;;;;;20.40;43.20;;;;;;4923088;29;20348;-57
2022/06/02 03:41:15;;;;;;;;;;;20.40;43.20;;;;;;4929504;28;19929;-52
2022/06/02 03:43:44;;;;;;;;;;;20.40;43.20;;;;;;4942966;28;20399;-53
2022/06/02 03:46:27;;;;;;;;;;;20.40;43.20;;;;;;4930463;28;19931;-54
2022/06/02 03:49:01;;;;;;;;;;;20.40;43.20;;;;;;4937564;28;19929;-57
2022/06/02 03:51:28;;;;;;;;;;;20.40;43.20;;;;;;4927139;29;19961;-55
2022/06/02 03:54:04;;;;;;;;;;;20.40;43.20;;;;;;4929209;29;19949;-55
2022/06/02 03:56:34;;;;;;;;;;;20.40;43.20;;;;;;4925273;28;20017;-56
2022/06/02 03:59:03;;;;;;;;;;;20.40;43.20;;;;;;4926263;28;19923;-56
2022/06/02 04:01:33;;;;;;;;;;;20.40;43.20;;;;;;4929060;29;20412;-56
2022/06/02 04:04:04;;;;;;;;;;;20.40;43.20;;;;;;4946205;28;19923;-55
2022/06/02 04:06:34;;;;;;;;;;;20.40;43.20;;;;;;4940679;28;19960;-53
2022/06/02 04:09:21;;;;;;;;;;;20.40;43.20;;;;;;4931051;29;19950;-55
2022/06/02 04:14:43;;;;;;;;;;;20.40;43.20;;;;;;4929097;28;19930;-55
2022/06/02 04:17:13;;;;;;;;;;;20.40;43.20;;;;;;4931215;28;19923;-54
2022/06/02 04:22:43;;;;;;;;;;;20.40;43.20;;;;;;4946840;28;20234;-56
2022/06/02 04:25:13;;;;;;;;;;;20.40;43.20;;;;;;4926499;28;20275;-55
2022/06/02 04:27:42;;;;;;;;;;;20.40;43.20;;;;;;4952286;28;20498;-54
2022/06/02 04:30:11;;;;;;;;;;;20.40;43.20;;;;;;4927807;29;20022;-54
2022/06/02 04:32:42;;;;;;;;;;;20.40;43.20;;;;;;4928966;29;19954;-55
2022/06/02 04:35:13;;;;;;;;;;;20.40;43.20;;;;;;4925952;28;20006;-55
2022/06/02 04:37:42;;;;;;;;;;;20.40;43.20;;;;;;4946757;28;19926;-58
2022/06/02 04:40:14;;;;;;;;;;;20.40;43.20;;;;;;4938092;28;20017;-57
2022/06/02 04:42:43;;;;;;;;;;;20.40;43.20;;;;;;4924114;29;19930;-55
2022/06/02 04:45:11;;;;;;;;;;;20.40;43.20;;;;;;4954468;28;19972;-58
2022/06/02 04:47:43;;;;;;;;;;;20.40;43.30;;;;;;4936064;28;19948;-58
2022/06/02 04:50:10;;;;;;;;;;;20.40;43.20;;;;;;4939372;28;19922;-56
2022/06/02 04:52:40;;;;;;;;;;;20.40;43.20;;;;;;4925582;28;20269;-55
2022/06/02 04:55:07;;;;;;;;;;;20.40;43.20;;;;;;5005861;28;19980;-57
2022/06/02 04:57:38;;;;;;;;;;;20.40;43.30;;;;;;4942182;28;19977;-59
2022/06/02 05:00:05;;;;;;;;;;;20.40;43.20;;;;;;4943752;28;19923;-59
2022/06/02 05:02:36;;;;;;;;;;;20.40;43.20;;;;;;4926841;28;19949;-56
2022/06/02 05:05:06;;;;;;;;;;;20.40;43.20;;;;;;4927264;28;20380;-54
2022/06/02 05:07:36;;;;;;;;;;;20.40;43.30;;;;;;4927979;28;20279;-58
2022/06/02 05:10:06;;;;;;;;;;;20.40;43.20;;;;;;4959935;28;19957;-56
2022/06/02 05:12:36;;;;;;;;;;;20.40;43.20;;;;;;4948772;28;19934;-57
2022/06/02 05:15:06;;;;;;;;;;;20.40;43.30;;;;;;4928012;28;19934;-58
2022/06/02 05:17:46;;;;;;;;;;;20.40;43.20;;;;;;4932464;28;20348;-55
2022/06/02 05:20:27;;;;;;;;;;;20.40;43.30;;;;;;4948363;28;20426;-55
2022/06/02 05:23:03;;;;;;;;;;;20.40;43.30;;;;;;4922547;29;19923;-55
2022/06/02 05:25:45;;;;;;;;;;;20.40;43.30;;;;;;4928651;29;19935;-52
2022/06/02 05:28:26;;;;;;;;;;;20.40;43.30;;;;;;4945350;28;20010;-57
2022/06/02 05:30:57;;;;;;;;;;;20.40;43.30;;;;;;4942134;28;20265;-56
2022/06/02 05:33:41;;;;;;;;;;;20.40;43.40;;;;;;4929374;29;20009;-56
2022/06/02 05:36:13;;;;;;;;;;;20.40;43.40;;;;;;4941703;28;19933;-56
2022/06/02 05:38:55;;;;;;;;;;;20.40;43.30;;;;;;4926279;28;20030;-56
2022/06/02 05:41:31;;;;;;;;;;;20.40;43.40;;;;;;4945536;28;19923;-57
2022/06/02 05:44:00;;;;;;;;;;;20.40;43.40;;;;;;4946628;28;19929;-57
2022/06/02 05:46:32;;;;;;;;;;;20.40;43.40;;;;;;4931915;28;19929;-59
2022/06/02 05:49:03;;;;;;;;;;;20.40;43.40;;;;;;4944953;28;20403;-56
2022/06/02 05:51:33;;;;;;;;;;;20.40;43.40;;;;;;4929159;28;20372;-57
2022/06/02 05:54:03;;;;;;;;;;;20.40;43.40;;;;;;4929417;28;20336;-53
2022/06/02 05:56:33;;;;;;;;;;;20.40;43.50;;;;;;4936232;28;20022;-50
2022/06/02 05:59:09;;;;;;;;;;;20.40;43.50;;;;;;4929864;28;20479;-57
2022/06/02 06:01:43;;;;;;;;;;;20.40;43.50;;;;;;4924283;28;20009;-56
2022/06/02 06:04:18;;;;;;;;;;;20.40;43.50;;;;;;4929884;29;20025;-53
2022/06/02 06:06:48;;;;;;;;;;;20.40;43.50;;;;;;4931083;29;20282;-53
2022/06/02 06:09:16;;;;;;;;;;;20.40;43.50;;;;;;4948471;28;19929;-57
2022/06/02 06:11:49;;;;;;;;;;;20.40;43.50;;;;;;4926940;29;19926;-51
2022/06/02 06:14:20;;;;;;;;;;;20.40;43.50;;;;;;4947509;28;19997;-55
2022/06/02 06:16:50;;;;;;;;;;;20.40;43.50;;;;;;4926154;29;19934;-54
2022/06/02 06:19:24;;;;;;;;;;;20.40;43.50;;;;;;4952323;28;19923;-53
2022/06/02 06:21:57;;;;;;;;;;;20.50;43.60;;;;;;4941525;28;20335;-56
2022/06/02 06:24:45;;;;;;;;;;;20.40;43.50;;;;;;4930197;28;19923;-56
2022/06/02 06:27:13;;;;;;;;;;;20.50;43.60;;;;;;4931178;28;20364;-54
2022/06/02 06:29:49;;;;;;;;;;;20.40;43.50;;;;;;4930929;29;19923;-53
2022/06/02 06:32:19;;;;;;;;;;;20.40;43.50;;;;;;4927682;28;20013;-57
2022/06/02 06:34:47;;;;;;;;;;;20.40;43.50;;;;;;4930989;29;20315;-53
2022/06/02 06:37:21;;;;;;;;;;;20.50;43.60;;;;;;4930787;28;20387;-58
2022/06/02 06:39:50;;;;;;;;;;;20.40;43.50;;;;;;4946660;28;19941;-50
2022/06/02 06:42:24;;;;;;;;;;;20.50;43.60;;;;;;4924722;28;19934;-51
2022/06/02 06:44:52;;;;;;;;;;;20.50;43.60;;;;;;4928748;29;19923;-55
2022/06/02 06:47:21;;;;;;;;;;;20.50;43.60;;;;;;4929299;28;19935;-52
2022/06/02 06:49:54;;;;;;;;;;;20.50;43.60;;;;;;4928909;28;19923;-55
2022/06/02 06:52:41;;;;;;;;;;;20.50;43.60;;;;;;4916074;28;19923;-52
2022/06/02 06:55:11;;;;;;;;;;;20.50;43.60;;;;;;4923792;28;19968;-54
2022/06/02 06:57:39;;;;;;;;;;;20.50;43.60;;;;;;4927513;29;20008;-53
2022/06/02 07:00:07;;;;;;;;;;;20.50;43.60;;;;;;4921382;29;20021;-57
2022/06/02 07:02:40;;;;;;;;;;;20.50;43.60;;;;;;4927162;28;20307;-54
2022/06/02 07:05:08;;;;;;;;;;;20.50;43.60;;;;;;4943859;28;20456;-54
2022/06/02 07:07:37;;;;;;;;;;;20.50;43.60;;;;;;4942901;28;19927;-58
2022/06/02 07:10:07;;;;;;;;;;;20.50;43.60;;;;;;4945387;28;19923;-52
2022/06/02 07:12:54;;;;;;;;;;;20.50;43.70;;;;;;4941886;28;19934;-53
2022/06/02 07:15:25;;;;;;;;;;;20.50;43.70;;;;;;4941350;28;20439;-54
2022/06/02 07:17:53;;;;;;;;;;;20.50;43.70;;;;;;4927033;28;19927;-56
2022/06/02 07:20:22;;;;;;;;;;;20.50;43.80;;;;;;4938357;28;19923;-56
2022/06/02 07:22:50;;;;;;;;;;;20.50;43.80;;;;;;4937296;28;19970;-53
2022/06/02 07:25:20;;;;;;;;;;;20.50;43.80;;;;;;4923951;28;20406;-55
2022/06/02 07:27:50;;;;;;;;;;;20.50;43.80;;;;;;4924120;28;20268;-53
2022/06/02 07:30:20;;;;;;;;;;;20.50;43.90;;;;;;4917547;28;19958;-57
2022/06/02 07:33:02;;;;;;;;;;;20.50;44.00;;;;;;4916994;28;19942;-55
2022/06/02 07:35:47;;;;;;;;;;;20.50;44.00;;;;;;4934390;28;19922;-52
2022/06/02 07:38:16;;;;;;;;;;;20.50;44.00;;;;;;4918126;29;19927;-52
2022/06/02 07:40:48;;;;;;;;;;;20.50;44.00;;;;;;4920200;28;20234;-51
2022/06/02 07:43:27;;;;;;;;;;;20.50;44.00;;;;;;4928910;28;19923;-54
2022/06/02 07:45:56;;;;;;;;;;;20.50;44.00;;;;;;4931240;28;20017;-55
2022/06/02 07:48:37;;;;;;;;;;;20.50;44.00;;;;;;4928290;28;20410;-55
2022/06/02 07:51:05;;;;;;;;;;;20.60;44.10;;;;;;4932443;28;20029;-56
2022/06/02 07:53:33;;;;;;;;;;;20.60;44.10;;;;;;4914131;28;20022;-55
2022/06/02 07:56:02;;;;;;;;;;;20.60;44.10;;;;;;4917275;28;19938;-57
2022/06/02 07:58:32;;;;;;;;;;;20.60;44.10;;;;;;4930553;28;19966;-56
2022/06/02 08:01:01;;;;;;;;;;;20.60;44.20;;;;;;4915897;28;20033;-55
2022/06/02 08:03:34;;;;;;;;;;;20.60;44.20;;;;;;4930888;28;20379;-56
2022/06/02 08:06:02;;;;;;;;;;;20.60;44.20;;;;;;4930806;28;20167;-56
2022/06/02 08:08:30;;;;;;;;;;;20.60;44.10;;;;;;4915940;28;19923;-55
2022/06/02 08:11:12;;;;;;;;;;;20.60;44.10;;;;;;4930242;28;19929;-57
2022/06/02 08:13:40;;;;;;;;;;;20.60;44.80;;;;;;4928423;28;19934;-53
2022/06/02 08:16:08;;;;;;;;;;;20.60;44.20;;;;;;4913120;28;20009;-58
2022/06/02 08:18:38;;;;;;;;;;;20.60;44.20;;;;;;4915155;28;19935;-57
2022/06/02 08:21:16;;;;;;;;;;;20.60;44.30;;;;;;4915465;28;20360;-50
2022/06/02 08:23:58;;;;;;;;;;;20.60;44.20;;;;;;4927065;28;20229;-52
2022/06/02 08:26:26;;;;;;;;;;;20.60;44.20;;;;;;4929533;28;19934;-54
2022/06/02 08:29:08;;;;;;;;;;;20.60;44.30;;;;;;4930095;29;19937;-56
2022/06/02 08:31:49;;;;;;;;;;;20.60;44.20;;;;;;4937566;28;19921;-53
2022/06/02 08:34:18;;;;;;;;;;;20.60;44.30;;;;;;4972308;28;19923;-56
2022/06/02 08:36:47;;;;;;;;;;;20.60;44.30;;;;;;4930301;28;19985;-55
2022/06/02 08:39:27;;;;;;;;;;;20.60;44.30;;;;;;4938077;28;19927;-57
2022/06/02 08:42:03;;;;;;;;;;;20.60;44.30;;;;;;4930139;28;20462;-55
2022/06/02 08:44:34;;;;;;;;;;;20.60;44.30;;;;;;4928417;29;20355;-54
2022/06/02 08:47:10;;;;;;;;;;;20.60;44.30;;;;;;4932750;28;19923;-52
2022/06/02 08:49:54;;;;;;;;;;;20.60;44.30;;;;;;4937757;28;19942;-51
2022/06/02 08:52:41;;;;;;;;;;;20.60;44.30;;;;;;4951324;28;19924;-57
2022/06/02 08:55:19;;;;;;;;;;;20.60;44.30;;;;;;4935814;28;20034;-57
2022/06/02 08:58:06;;;;;;;;;;;20.60;44.30;;;;;;4917034;28;20013;-52
2022/06/02 09:00:43;;;;;;;;;;;20.60;44.30;;;;;;4940649;28;20029;-56
2022/06/02 09:03:20;;;;;;;;;;;20.60;44.40;;;;;;4923494;28;19942;-57
2022/06/02 09:06:05;;;;;;;;;;;20.60;44.90;;;;;;4931002;28;20252;-56
2022/06/02 09:08:49;;;;;;;;;;;20.60;44.30;;;;;;4924228;28;19923;-55
2022/06/02 09:11:30;;;;;;;;;;;20.60;44.30;;;;;;4920961;28;19930;-53
2022/06/02 09:14:16;;;;;;;;;;;20.60;44.90;;;;;;4927227;28;19923;-57
2022/06/02 09:16:45;;;;;;;;;;;20.60;44.30;;;;;;4935472;28;19922;-55
2022/06/02 09:19:42;;;;;;;;;;;20.60;44.30;;;;;;4923577;28;19937;-57
2022/06/02 09:22:27;;;;;;;;;;;20.60;44.30;;;;;;4931420;28;19922;-56
2022/06/02 09:24:58;;;;;;;;;;;20.60;44.40;;;;;;4924878;28;19923;-54
2022/06/02 09:27:37;;;;;;;;;;;20.60;44.40;;;;;;4912563;28;20340;-57
2022/06/02 09:30:03;;;;;;;;;;;20.60;44.40;;;;;;4935836;28;20026;-54
2022/06/02 09:32:40;;;;;;;;;;;20.60;44.40;;;;;;4913794;28;19934;-50
2022/06/02 09:35:15;;;;;;;;;;;20.60;44.50;;;;;;4941199;28;20351;-52
2022/06/02 09:37:52;;;;;;;;;;;20.60;44.40;;;;;;4935948;28;19951;-53
2022/06/02 09:40:37;;;;;;;;;;;20.60;44.50;;;;;;4917853;28;20373;-54
2022/06/02 09:43:28;;;;;;;;;;;20.60;44.50;;;;;;4929401;28;19926;-54
2022/06/02 09:45:58;;;;;;;;;;;20.60;44.50;;;;;;4928455;28;20017;-54
2022/06/02 09:48:28;;;;;;;;;;;20.60;44.50;;;;;;4927122;28;20017;-55
2022/06/02 09:51:02;;;;;;;;;;;20.60;44.50;;;;;;4927649;28;19926;-57
2022/06/02 09:53:35;;;;;;;;;;;20.60;44.50;;;;;;4933309;28;19930;-54
2022/06/02 09:56:08;;;;;;;;;;;20.60;44.60;;;;;;4926614;28;20287;-53
2022/06/02 09:58:41;;;;;;;;;;;20.60;44.50;;;;;;4920216;28;20611;-55
2022/06/02 10:01:15;;;;;;;;;;;20.60;44.50;;;;;;4914898;28;20038;-53
2022/06/02 10:03:58;;;;;;;;;;;20.60;44.50;;;;;;4935639;28;20440;-55
2022/06/02 10:06:30;;;;;;;;;;;20.60;44.40;;;;;;4950745;28;19927;-55
2022/06/02 10:09:03;;;;;;;;;;;20.60;44.40;;;;;;4932185;28;20440;-55
2022/06/02 10:11:30;;;;;;;;;;;20.60;44.40;;;;;;4941949;28;19990;-54
2022/06/02 10:14:04;;;;;;;;;;;20.60;44.50;;;;;;4927001;28;20017;-58
2022/06/02 10:17:01;;;;;;;;;;;20.60;44.40;;;;;;4925900;28;19927;-54
2022/06/02 10:19:45;;;;;;;;;;;20.60;44.40;;;;;;4922587;28;19985;-55
2022/06/02 10:22:13;;;;;;;;;;;20.60;44.40;;;;;;4936024;28;19926;-54
2022/06/02 10:24:48;;;;;;;;;;;20.60;44.40;;;;;;4932824;28;19945;-53
2022/06/02 10:27:23;;;;;;;;;;;20.60;44.40;;;;;;4923841;28;20197;-54
2022/06/02 10:30:10;;;;;;;;;;;20.60;44.40;;;;;;4925657;28;19923;-57
2022/06/02 10:33:01;;;;;;;;;;;20.60;44.40;;;;;;4923979;28;19933;-56
2022/06/02 10:35:58;;;;;;;;;;;20.60;44.40;;;;;;4896837;28;19930;-56
2022/06/02 10:38:27;;;;;;;;;;;20.60;44.40;;;;;;4862667;28;19994;-54
2022/06/02 10:40:57;;;;;;;;;;;20.60;44.40;;;;;;4930011;28;19929;-59
2022/06/02 10:43:36;;;;;;;;;;;20.60;44.40;;;;;;4951932;28;19926;-55
2022/06/02 10:46:06;;;;;;;;;;;20.60;44.40;;;;;;4936654;28;19923;-57
2022/06/02 10:48:54;;;;;;;;;;;20.60;44.40;;;;;;4931695;28;19942;-54
2022/06/02 10:51:45;;;;;;;;;;;20.60;44.30;;;;;;4914745;28;20364;-57
2022/06/02 10:54:21;;;;;;;;;;;20.60;44.30;;;;;;4889587;28;19923;-56
2022/06/02 10:56:53;;;;;;;;;;;20.60;44.30;;;;;;4923375;28;19930;-51
2022/06/02 10:59:33;;;;;;;;;;;20.60;44.40;;;;;;4940357;28;19954;-52
2022/06/02 11:02:11;;;;;;;;;;;20.60;44.40;;;;;;4922175;28;19931;-50
2022/06/02 11:04:59;;;;;;;;;;;20.60;44.40;;;;;;4925799;28;19931;-50
2022/06/02 11:07:53;;;;;;;;;;;20.60;44.40;;;;;;4919160;28;19981;-53
2022/06/02 11:10:23;;;;;;;;;;;20.60;44.40;;;;;;4906553;28;19953;-50
2022/06/02 11:13:08;;;;;;;;;;;20.70;44.50;;;;;;4924930;28;19922;-53
2022/06/02 11:15:41;;;;;;;;;;;20.70;44.50;;;;;;4929004;28;20014;-57
2022/06/02 11:18:28;;;;;;;;;;;20.70;44.50;;;;;;4941678;28;19927;-50
2022/06/02 11:21:12;;;;;;;;;;;20.70;44.50;;;;;;4936266;28;19930;-52
2022/06/02 11:23:57;;;;;;;;;;;20.70;44.50;;;;;;4930201;28;20383;-52
2022/06/02 11:26:56;;;;;;;;;;;20.70;44.50;;;;;;4940418;28;19929;-53
2022/06/02 11:29:41;;;;;;;;;;;20.70;44.50;;;;;;4946035;28;20209;-49
2022/06/02 11:32:13;;;;;;;;;;;20.70;44.50;;;;;;4943751;28;19964;-51
2022/06/02 11:35:13;;;;;;;;;;;20.70;44.70;;;;;;4937065;28;20297;-55
2022/06/02 11:37:53;;;;;;;;;;;20.70;44.50;;;;;;4962428;28;19922;-52
2022/06/02 11:40:34;;;;;;;;;;;20.70;44.50;;;;;;4964742;28;19952;-49
2022/06/02 11:43:07;;;;;;;;;;;20.70;44.50;;;;;;4932273;28;20367;-48
2022/06/02 11:45:36;;;;;;;;;;;20.70;44.50;;;;;;4921402;28;19927;-53
2022/06/02 11:48:08;;;;;;;;;;;20.70;44.50;;;;;;4922702;28;19976;-54
2022/06/02 11:50:41;;;;;;;;;;;20.70;44.50;;;;;;4923606;28;19923;-51
2022/06/02 11:53:21;;;;;;;;;;;20.70;44.50;;;;;;4927027;28;19931;-52
2022/06/02 11:55:50;;;;;;;;;;;20.70;44.50;;;;;;4926514;28;19929;-52
2022/06/02 11:58:26;;;;;;;;;;;20.70;44.50;;;;;;4922193;28;20014;-55
2022/06/02 12:00:59;;;;;;;;;;;20.70;44.50;;;;;;4925422;28;19981;-55
2022/06/02 12:03:35;;;;;;;;;;;20.70;44.50;;;;;;4927102;28;19992;-52
2022/06/02 12:06:07;;;;;;;;;;;20.70;44.50;;;;;;4969297;28;19922;-55
2022/06/02 12:08:42;;;;;;;;;;;20.70;44.50;;;;;;4928228;28;19927;-51
2022/06/02 12:11:16;;;;;;;;;;;20.70;44.50;;;;;;4920742;28;19923;-54
2022/06/02 12:13:53;;;;;;;;;;;20.70;44.50;;;;;;4923719;28;19923;-50
2022/06/02 12:16:32;;;;;;;;;;;20.70;44.50;;;;;;4921008;28;19927;-55
2022/06/02 12:19:11;;;;;;;;;;;20.70;44.60;;;;;;4915805;28;19945;-55
2022/06/02 12:21:42;;;;;;;;;;;20.70;44.60;;;;;;4935301;28;19958;-56
2022/06/02 12:24:24;;;;;;;;;;;20.70;44.60;;;;;;4926504;28;19929;-52
2022/06/02 12:26:57;;;;;;;;;;;20.70;44.60;;;;;;4930809;28;20028;-55
2022/06/02 12:29:26;;;;;;;;;;;20.70;44.60;;;;;;4920862;28;19927;-54
2022/06/02 12:32:13;;;;;;;;;;;20.70;44.60;;;;;;4934423;28;19923;-55
2022/06/02 12:35:02;;;;;;;;;;;20.70;44.50;;;;;;4923972;28;20378;-53
2022/06/02 12:38:02;;;;;;;;;;;20.70;44.60;;;;;;4915838;28;20228;-52
2022/06/02 12:40:31;;;;;;;;;;;20.70;44.60;;;;;;4942312;28;19985;-52
2022/06/02 12:43:13;;;;;;;;;;;20.70;44.60;;;;;;4934556;28;19927;-57
2022/06/02 12:45:47;;;;;;;;;;;20.70;44.70;;;;;;4932317;28;19941;-54
2022/06/02 12:48:33;;;;;;;;;;;20.60;44.60;;;;;;4938114;28;20325;-53
2022/06/02 12:51:03;;;;;;;;;;;20.70;44.70;;;;;;4922689;28;20064;-52
2022/06/02 12:53:48;;;;;;;;;;;20.70;44.60;;;;;;4943291;28;19927;-55
2022/06/02 12:56:27;;;;;;;;;;;20.70;44.60;;;;;;4920880;28;19934;-55
2022/06/02 12:59:05;;;;;;;;;;;20.70;44.60;;;;;;4922321;28;19934;-54
2022/06/02 13:01:53;;;;;;;;;;;20.70;44.60;;;;;;4939453;28;19930;-54
2022/06/02 13:04:38;;;;;;;;;;;20.70;44.60;;;;;;4924417;28;20031;-55
2022/06/02 13:07:19;;;;;;;;;;;20.70;44.70;;;;;;4940149;28;19955;-55
2022/06/02 13:10:01;;;;;;;;;;;20.60;44.60;;;;;;4923561;28;19934;-51
2022/06/02 13:12:43;;;;;;;;;;;20.70;44.70;;;;;;4950134;28;20270;-54
2022/06/02 13:15:31;;;;;;;;;;;20.70;44.70;;;;;;4938601;28;20021;-53
2022/06/02 13:18:11;;;;;;;;;;;20.60;44.60;;;;;;4938911;28;19938;-55
2022/06/02 13:20:42;;;;;;;;;;;20.70;44.70;;;;;;4917777;28;19927;-53
2022/06/02 13:23:36;;;;;;;;;;;20.70;44.60;;;;;;4918390;28;19931;-56
2022/06/02 13:26:18;;;;;;;;;;;20.70;44.60;;;;;;4917632;28;20330;-51
2022/06/02 13:29:00;;;;;;;;;;;20.70;44.60;;;;;;4925585;28;19973;-53
2022/06/02 13:31:39;;;;;;;;;;;20.70;44.70;;;;;;4930159;28;19926;-51
2022/06/02 13:34:15;;;;;;;;;;;20.70;44.70;;;;;;4940832;28;20016;-52
2022/06/02 13:36:45;;;;;;;;;;;20.70;44.70;;;;;;4937815;28;19933;-52
2022/06/02 13:39:19;;;;;;;;;;;20.70;44.70;;;;;;4921630;28;20030;-55
2022/06/02 13:41:56;;;;;;;;;;;20.70;44.70;;;;;;4919588;28;19933;-51
2022/06/02 13:44:43;;;;;;;;;;;20.70;44.70;;;;;;4926097;28;20407;-50
2022/06/02 13:47:25;;;;;;;;;;;20.70;44.70;;;;;;4933734;28;19975;-56
2022/06/02 13:50:22;;;;;;;;;;;20.70;44.60;;;;;;4940838;28;19923;-53
2022/06/02 13:53:13;;;;;;;;;;;20.70;44.60;;;;;;4939704;28;19966;-53
2022/06/02 13:59:03;;;;;;;;;;;20.70;44.70;;;;;;4919755;28;19933;-53
2022/06/02 14:01:38;;;;;;;;;;;20.70;44.60;;;;;;4927336;28;19926;-54
2022/06/02 14:04:18;;;;;;;;;;;20.70;44.60;;;;;;4919717;28;19935;-57
2022/06/02 14:06:46;;;;;;;;;;;20.70;44.60;;;;;;4916594;28;20018;-54
2022/06/02 14:09:20;;;;;;;;;;;20.70;44.60;;;;;;4939854;28;20364;-52
2022/06/02 14:11:49;;;;;;;;;;;20.70;44.60;;;;;;4928768;28;19923;-53
2022/06/02 14:14:29;;;;;;;;;;;20.70;44.60;;;;;;4934545;28;19935;-58
2022/06/02 14:16:59;;;;;;;;;;;20.70;44.60;;;;;;4941308;28;19958;-54
2022/06/02 14:19:36;;;;;;;;;;;20.70;44.60;;;;;;4924997;28;19934;-54
2022/06/02 14:22:05;;;;;;;;;;;20.70;44.60;;;;;;4912557;28;19927;-55
2022/06/02 14:24:35;;;;;;;;;;;20.70;44.60;;;;;;4925477;28;20292;-52
2022/06/02 14:27:08;;;;;;;;;;;20.70;44.60;;;;;;4921131;28;20013;-56
2022/06/02 14:29:37;;;;;;;;;;;20.70;44.60;;;;;;4918718;28;19923;-56
2022/06/02 14:32:09;;;;;;;;;;;20.70;44.60;;;;;;4928608;28;19923;-52
2022/06/02 14:34:39;;;;;;;;;;;20.70;44.60;;;;;;4918406;28;19973;-52
2022/06/02 14:37:07;;;;;;;;;;;20.70;44.60;;;;;;4944990;28;19940;-51
2022/06/02 14:39:37;;;;;;;;;;;20.70;44.60;;;;;;4927826;28;19927;-52
2022/06/02 14:42:19;;;;;;;;;;;20.70;44.70;;;;;;4965290;28;19923;-55
2022/06/02 14:44:48;;;;;;;;;;;20.70;44.60;;;;;;4931131;28;19927;-52
2022/06/02 14:47:17;;;;;;;;;;;20.70;44.60;;;;;;4937847;28;19935;-54
2022/06/02 14:49:48;;;;;;;;;;;20.70;44.60;;;;;;4924404;28;19977;-56
2022/06/02 14:52:24;;;;;;;;;;;20.70;44.50;;;;;;4929074;28;19938;-58
2022/06/02 14:54:57;;;;;;;;;;;20.70;45.10;;;;;;4927539;28;19934;-50
2022/06/02 14:57:29;;;;;;;;;;;20.60;44.30;;;;;;4941661;28;19923;-55
2022/06/02 15:00:00;;;;;;;;;;;20.60;44.20;;;;;;4975254;28;20363;-54
2022/06/02 15:02:43;;;;;;;;;;;20.60;44.20;;;;;;4916273;28;20021;-52
2022/06/02 15:05:16;;;;;;;;;;;20.60;44.30;;;;;;4922536;28;19927;-50
2022/06/02 15:07:51;;;;;;;;;;;20.60;44.30;;;;;;4925856;28;20439;-52
2022/06/02 15:10:29;;;;;;;;;;;20.60;44.20;;;;;;4927394;28;20249;-56
2022/06/02 15:13:04;;;;;;;;;;;20.60;44.20;;;;;;4923378;28;19935;-54